sensor_id;sensor_type;location;lat;lon;timestamp;pressure;altitude;pressure_sealevel;temperature;humidity
12801;BME280;6464;42.494;27.470;2023-04-08T00:02:27;100318.66;;;7.95;100.00
12801;BME280;6464;42.494;27.470;2023-04-08T00:05:01;100463.63;;;8.20;100.00
12801;BME280;6464;42.494;27.470;2023-04-08T00:08:02;100531.06;;;8.20;100.00
12801;BME280;6464;42.494;27.470;2023-04-08T00:10:30;100647.69;;;8.90;100.00
12801;BME280;6464;42.494;27.470;2023-04-08T00:12:58;100644.19;;;8.85;100.00
12801;BME280;6464;42.494;27.470;2023-04-08T00:15:26;100649.56;;;8.80;100.00
12801;BME280;6464;42.494;27.470;2023-04-08T00:17:54;100523.03;;;8.37;100.00
12801;BME280;6464;42.494;27.470;2023-04-08T00:20:22;100486.63;;;8.03;100.00
12801;BME280;6464;42.494;27.470;2023-04-08T00:22:50;100530.06;;;8.30;100.00
12801;BME280;6464;42.494;27.470;2023-04-08T00:25:20;100457.66;;;8.09;100.00
12801;BME280;6464;42.494;27.470;2023-04-08T00:28:38;100387.22;;;7.74;100.00
12801;BME280;6464;42.494;27.470;2023-04-08T00:31:23;100451.78;;;7.89;100.00
12801;BME280;6464;42.494;27.470;2023-04-08T00:34:04;100504.56;;;8.43;100.00
12801;BME280;6464;42.494;27.470;2023-04-08T00:36:38;100564.03;;;8.48;100.00
12801;BME280;6464;42.494;27.470;2023-04-08T00:39:05;100445.47;;;8.02;100.00
12801;BME280;6464;42.494;27.470;2023-04-08T00:41:33;100380.63;;;7.35;100.00
12801;BME280;6464;42.494;27.470;2023-04-08T00:44:02;100480.88;;;7.69;100.00
12801;BME280;6464;42.494;27.470;2023-04-08T00:46:30;100477.16;;;7.90;100.00
12801;BME280;6464;42.494;27.470;2023-04-08T00:49:00;100352.06;;;7.12;100.00
12801;BME280;6464;42.494;27.470;2023-04-08T00:51:37;100336.50;;;6.93;100.00
12801;BME280;6464;42.494;27.470;2023-04-08T00:54:37;100280.59;;;6.91;100.00
12801;BME280;6464;42.494;27.470;2023-04-08T00:57:20;100548.50;;;8.29;100.00
12801;BME280;6464;42.494;27.470;2023-04-08T00:59:51;100444.84;;;7.83;100.00
12801;BME280;6464;42.494;27.470;2023-04-08T04:04:29;100108.25;;;5.35;100.00
12801;BME280;6464;42.494;27.470;2023-04-08T04:07:11;100165.38;;;5.95;100.00
12801;BME280;6464;42.494;27.470;2023-04-08T04:09:49;100220.16;;;6.21;100.00
12801;BME280;6464;42.494;27.470;2023-04-08T04:12:21;100160.84;;;6.15;100.00
12801;BME280;6464;42.494;27.470;2023-04-08T04:15:03;100032.63;;;5.10;100.00
12801;BME280;6464;42.494;27.470;2023-04-08T04:17:46;100004.03;;;4.90;100.00
12801;BME280;6464;42.494;27.470;2023-04-08T04:20:31;100064.91;;;5.02;100.00
12801;BME280;6464;42.494;27.470;2023-04-08T04:23:03;100047.72;;;4.67;100.00
12801;BME280;6464;42.494;27.470;2023-04-08T04:25:45;100054.66;;;4.68;100.00
12801;BME280;6464;42.494;27.470;2023-04-08T04:28:13;100064.06;;;4.97;100.00
12801;BME280;6464;42.494;27.470;2023-04-08T04:31:00;100096.88;;;5.40;100.00
12801;BME280;6464;42.494;27.470;2023-04-08T04:33:42;100250.63;;;6.26;100.00
12801;BME280;6464;42.494;27.470;2023-04-08T04:36:19;100033.56;;;5.02;100.00
12801;BME280;6464;42.494;27.470;2023-04-08T04:38:51;100261.91;;;6.36;100.00
12801;BME280;6464;42.494;27.470;2023-04-08T04:41:19;100253.88;;;6.56;100.00
12801;BME280;6464;42.494;27.470;2023-04-08T04:44:01;100202.63;;;6.27;100.00
12801;BME280;6464;42.494;27.470;2023-04-08T04:46:44;100054.22;;;5.35;100.00
12801;BME280;6464;42.494;27.470;2023-04-08T04:49:30;100139.28;;;5.85;100.00
12801;BME280;6464;42.494;27.470;2023-04-08T04:52:30;100282.53;;;6.71;100.00
12801;BME280;6464;42.494;27.470;2023-04-08T04:55:00;100201.63;;;6.40;100.00
12801;BME280;6464;42.494;27.470;2023-04-08T04:58:02;100209.53;;;6.33;100.00
12801;BME280;6464;42.494;27.470;2023-04-08T05:00:33;100120.06;;;5.88;100.00
12801;BME280;6464;42.494;27.470;2023-04-08T05:03:05;100272.13;;;6.65;100.00
12801;BME280;6464;42.494;27.470;2023-04-08T05:05:35;100403.16;;;7.56;100.00
12801;BME280;6464;42.494;27.470;2023-04-08T05:08:09;100405.19;;;7.29;100.00
12801;BME280;6464;42.494;27.470;2023-04-08T05:10:40;100248.31;;;5.86;100.00
12801;BME280;6464;42.494;27.470;2023-04-08T05:13:10;100264.75;;;6.04;100.00
12801;BME280;6464;42.494;27.470;2023-04-08T05:15:40;100373.94;;;7.05;100.00
12801;BME280;6464;42.494;27.470;2023-04-08T05:18:08;100279.94;;;6.69;100.00
12801;BME280;6464;42.494;27.470;2023-04-08T05:20:39;100374.56;;;6.28;100.00
12801;BME280;6464;42.494;27.470;2023-04-08T05:23:14;100479.84;;;6.91;100.00
12801;BME280;6464;42.494;27.470;2023-04-08T05:25:43;100479.88;;;6.81;100.00
12801;BME280;6464;42.494;27.470;2023-04-08T05:28:20;100368.44;;;6.31;100.00
12801;BME280;6464;42.494;27.470;2023-04-08T05:31:00;100286.69;;;5.80;100.00
12801;BME280;6464;42.494;27.470;2023-04-08T05:33:34;100306.53;;;6.25;100.00
12801;BME280;6464;42.494;27.470;2023-04-08T05:36:14;100359.72;;;6.32;100.00
12801;BME280;6464;42.494;27.470;2023-04-08T05:38:51;100399.78;;;6.46;100.00
12801;BME280;6464;42.494;27.470;2023-04-08T05:41:24;100403.13;;;6.65;100.00
12801;BME280;6464;42.494;27.470;2023-04-08T05:44:11;100329.34;;;6.06;100.00
12801;BME280;6464;42.494;27.470;2023-04-08T05:46:45;100433.06;;;7.39;100.00
12801;BME280;6464;42.494;27.470;2023-04-08T05:49:16;100418.66;;;7.79;100.00
12801;BME280;6464;42.494;27.470;2023-04-08T05:51:46;100382.88;;;6.85;100.00
12801;BME280;6464;42.494;27.470;2023-04-08T05:54:27;100304.59;;;6.49;100.00
12801;BME280;6464;42.494;27.470;2023-04-08T05:57:04;100427.00;;;7.33;100.00
12801;BME280;6464;42.494;27.470;2023-04-08T05:59:37;100380.34;;;6.78;100.00
12801;BME280;6464;42.494;27.470;2023-04-08T06:02:12;100355.88;;;6.76;100.00
12801;BME280;6464;42.494;27.470;2023-04-08T06:04:50;100513.81;;;7.97;100.00
12801;BME280;6464;42.494;27.470;2023-04-08T06:07:18;100438.31;;;7.39;100.00
12801;BME280;6464;42.494;27.470;2023-04-08T06:09:58;100519.34;;;8.52;100.00
12801;BME280;6464;42.494;27.470;2023-04-08T06:12:27;100383.28;;;7.33;100.00
12801;BME280;6464;42.494;27.470;2023-04-08T06:14:59;100422.78;;;7.96;100.00
12801;BME280;6464;42.494;27.470;2023-04-08T06:17:32;100410.16;;;7.57;100.00
12801;BME280;6464;42.494;27.470;2023-04-08T06:20:14;100577.56;;;8.12;100.00
12801;BME280;6464;42.494;27.470;2023-04-08T06:22:45;100660.50;;;8.36;100.00
12801;BME280;6464;42.494;27.470;2023-04-08T06:25:23;100471.94;;;7.87;100.00
12801;BME280;6464;42.494;27.470;2023-04-08T06:27:56;100582.38;;;9.18;100.00
12801;BME280;6464;42.494;27.470;2023-04-08T06:30:25;100508.25;;;8.91;100.00
12801;BME280;6464;42.494;27.470;2023-04-08T06:32:54;100449.97;;;8.62;100.00
12801;BME280;6464;42.494;27.470;2023-04-08T06:35:31;100597.28;;;8.53;100.00
12801;BME280;6464;42.494;27.470;2023-04-08T06:38:00;100712.53;;;9.56;100.00
12801;BME280;6464;42.494;27.470;2023-04-08T06:40:30;100716.78;;;9.67;100.00
12801;BME280;6464;42.494;27.470;2023-04-08T06:42:59;100629.06;;;9.04;100.00
12801;BME280;6464;42.494;27.470;2023-04-08T06:45:31;100526.22;;;8.62;100.00
12801;BME280;6464;42.494;27.470;2023-04-08T06:47:59;100708.63;;;9.84;100.00
12801;BME280;6464;42.494;27.470;2023-04-08T06:50:27;100593.25;;;10.03;100.00
12801;BME280;6464;42.494;27.470;2023-04-08T06:52:58;100554.56;;;10.07;100.00
12801;BME280;6464;42.494;27.470;2023-04-08T06:55:26;100524.16;;;9.39;100.00
12801;BME280;6464;42.494;27.470;2023-04-08T06:57:59;100621.19;;;9.61;100.00
12801;BME280;6464;42.494;27.470;2023-04-08T07:00:42;100538.88;;;8.95;100.00
12801;BME280;6464;42.494;27.470;2023-04-08T07:03:17;100531.25;;;9.34;100.00
12801;BME280;6464;42.494;27.470;2023-04-08T07:05:49;100657.28;;;10.58;100.00
12801;BME280;6464;42.494;27.470;2023-04-08T07:08:21;100741.91;;;10.45;100.00
12801;BME280;6464;42.494;27.470;2023-04-08T07:10:51;100585.03;;;10.20;100.00
12801;BME280;6464;42.494;27.470;2023-04-08T07:13:23;100689.34;;;10.35;100.00
12801;BME280;6464;42.494;27.470;2023-04-08T07:15:55;100799.25;;;10.31;100.00
12801;BME280;6464;42.494;27.470;2023-04-08T07:18:27;100559.56;;;9.18;100.00
12801;BME280;6464;42.494;27.470;2023-04-08T07:20:58;100719.78;;;10.52;100.00
12801;BME280;6464;42.494;27.470;2023-04-08T07:23:30;100662.88;;;10.41;100.00
12801;BME280;6464;42.494;27.470;2023-04-08T07:26:01;100707.84;;;11.23;100.00
12801;BME280;6464;42.494;27.470;2023-04-08T07:28:31;100532.25;;;10.68;100.00
12801;BME280;6464;42.494;27.470;2023-04-08T07:31:09;100689.09;;;11.35;100.00
12801;BME280;6464;42.494;27.470;2023-04-08T07:33:37;100716.16;;;10.58;100.00
12801;BME280;6464;42.494;27.470;2023-04-08T07:36:07;100774.94;;;11.13;100.00
12801;BME280;6464;42.494;27.470;2023-04-08T07:38:37;100680.69;;;11.18;100.00
12801;BME280;6464;42.494;27.470;2023-04-08T07:41:12;100607.53;;;11.23;100.00
12801;BME280;6464;42.494;27.470;2023-04-08T07:43:42;100690.47;;;11.13;100.00
12801;BME280;6464;42.494;27.470;2023-04-08T07:46:11;100594.41;;;10.38;100.00
12801;BME280;6464;42.494;27.470;2023-04-08T07:48:41;100666.59;;;10.75;100.00
12801;BME280;6464;42.494;27.470;2023-04-08T07:51:18;100776.84;;;11.90;100.00
12801;BME280;6464;42.494;27.470;2023-04-08T07:53:46;100851.59;;;12.69;100.00
12801;BME280;6464;42.494;27.470;2023-04-08T07:56:14;100703.19;;;11.34;100.00
12801;BME280;6464;42.494;27.470;2023-04-08T07:58:48;100909.66;;;11.99;100.00
12801;BME280;6464;42.494;27.470;2023-04-08T08:01:18;100909.28;;;11.73;100.00
12801;BME280;6464;42.494;27.470;2023-04-08T08:03:47;100767.91;;;11.12;100.00
12801;BME280;6464;42.494;27.470;2023-04-08T08:06:15;100804.91;;;11.94;100.00
12801;BME280;6464;42.494;27.470;2023-04-08T08:08:43;100887.72;;;12.72;100.00
12801;BME280;6464;42.494;27.470;2023-04-08T08:11:11;100819.25;;;11.83;100.00
12801;BME280;6464;42.494;27.470;2023-04-08T08:13:39;100760.75;;;11.58;100.00
12801;BME280;6464;42.494;27.470;2023-04-08T08:16:07;100740.88;;;11.41;100.00
12801;BME280;6464;42.494;27.470;2023-04-08T08:18:36;100733.94;;;11.77;100.00
12801;BME280;6464;42.494;27.470;2023-04-08T08:21:05;100769.56;;;12.69;100.00
12801;BME280;6464;42.494;27.470;2023-04-08T08:23:32;100805.53;;;12.42;100.00
12801;BME280;6464;42.494;27.470;2023-04-08T08:25:59;100764.84;;;12.12;100.00
12801;BME280;6464;42.494;27.470;2023-04-08T08:28:29;100796.38;;;11.81;100.00
12801;BME280;6464;42.494;27.470;2023-04-08T08:30:56;100781.44;;;11.78;100.00
12801;BME280;6464;42.494;27.470;2023-04-08T08:33:26;100895.91;;;12.61;100.00
12801;BME280;6464;42.494;27.470;2023-04-08T08:35:55;100897.28;;;12.40;100.00
12801;BME280;6464;42.494;27.470;2023-04-08T08:38:28;100879.59;;;12.42;100.00
12801;BME280;6464;42.494;27.470;2023-04-08T08:40:56;100829.69;;;12.28;100.00
12801;BME280;6464;42.494;27.470;2023-04-08T08:43:26;100768.31;;;12.84;100.00
12801;BME280;6464;42.494;27.470;2023-04-08T08:45:58;100850.91;;;13.31;100.00
12801;BME280;6464;42.494;27.470;2023-04-08T08:48:27;100780.50;;;12.55;100.00
12801;BME280;6464;42.494;27.470;2023-04-08T08:50:55;100759.69;;;12.42;100.00
12801;BME280;6464;42.494;27.470;2023-04-08T08:53:28;100736.19;;;11.95;100.00
12801;BME280;6464;42.494;27.470;2023-04-08T08:56:00;100716.94;;;11.89;100.00
12801;BME280;6464;42.494;27.470;2023-04-08T08:58:27;100908.09;;;12.68;100.00
12801;BME280;6464;42.494;27.470;2023-04-08T09:00:58;100880.56;;;13.09;100.00
12801;BME280;6464;42.494;27.470;2023-04-08T09:03:28;100736.84;;;12.39;100.00
12801;BME280;6464;42.494;27.470;2023-04-08T09:05:59;100736.66;;;12.79;100.00
12801;BME280;6464;42.494;27.470;2023-04-08T09:08:29;100683.31;;;13.26;100.00
12801;BME280;6464;42.494;27.470;2023-04-08T09:11:27;100782.25;;;12.56;100.00
12801;BME280;6464;42.494;27.470;2023-04-08T09:13:56;100818.41;;;12.56;100.00
12801;BME280;6464;42.494;27.470;2023-04-08T09:16:24;100766.69;;;12.44;100.00
12801;BME280;6464;42.494;27.470;2023-04-08T09:19:07;100847.81;;;13.13;100.00
12801;BME280;6464;42.494;27.470;2023-04-08T09:21:37;100881.91;;;14.47;100.00
12801;BME280;6464;42.494;27.470;2023-04-08T09:24:06;100835.91;;;13.91;100.00
12801;BME280;6464;42.494;27.470;2023-04-08T09:26:35;100851.09;;;13.25;100.00
12801;BME280;6464;42.494;27.470;2023-04-08T09:29:07;100959.63;;;15.07;100.00
12801;BME280;6464;42.494;27.470;2023-04-08T09:31:37;100930.75;;;15.23;100.00
12801;BME280;6464;42.494;27.470;2023-04-08T09:34:10;100808.50;;;15.24;100.00
12801;BME280;6464;42.494;27.470;2023-04-08T09:36:39;100822.16;;;15.38;100.00
12801;BME280;6464;42.494;27.470;2023-04-08T09:39:07;100859.75;;;15.51;100.00
12801;BME280;6464;42.494;27.470;2023-04-08T09:41:37;101072.84;;;16.89;100.00
12801;BME280;6464;42.494;27.470;2023-04-08T09:44:07;101047.00;;;19.85;100.00
12801;BME280;6464;42.494;27.470;2023-04-08T09:46:39;102151.56;;;21.33;100.00
12801;BME280;6464;42.494;27.470;2023-04-08T09:55:07;101989.09;;;18.58;100.00
12801;BME280;6464;42.494;27.470;2023-04-08T10:02:55;101808.44;;;17.42;100.00
12801;BME280;6464;42.494;27.470;2023-04-08T10:25:41;102139.66;;;19.16;100.00
12801;BME280;6464;42.494;27.470;2023-04-08T10:28:28;102135.03;;;18.93;100.00
12801;BME280;6464;42.494;27.470;2023-04-08T10:31:43;101897.19;;;17.80;100.00
12801;BME280;6464;42.494;27.470;2023-04-08T10:36:59;102319.84;;;21.98;100.00
12801;BME280;6464;42.494;27.470;2023-04-08T10:42:39;101918.44;;;17.50;100.00
12801;BME280;6464;42.494;27.470;2023-04-08T10:47:43;102390.31;;;24.27;100.00
12801;BME280;6464;42.494;27.470;2023-04-08T10:53:02;102295.13;;;22.54;100.00
12801;BME280;6464;42.494;27.470;2023-04-08T11:01:44;102019.06;;;18.68;100.00
12801;BME280;6464;42.494;27.470;2023-04-08T11:07:11;102327.06;;;23.79;100.00
12801;BME280;6464;42.494;27.470;2023-04-08T11:10:21;102221.34;;;21.09;100.00
12801;BME280;6464;42.494;27.470;2023-04-08T11:15:35;102092.59;;;19.37;100.00
12801;BME280;6464;42.494;27.470;2023-04-08T11:33:24;102092.19;;;19.76;100.00
12801;BME280;6464;42.494;27.470;2023-04-08T11:36:09;102352.81;;;24.04;100.00
12801;BME280;6464;42.494;27.470;2023-04-08T11:39:42;102266.88;;;22.64;100.00
12801;BME280;6464;42.494;27.470;2023-04-08T11:48:07;102074.19;;;20.29;100.00
12801;BME280;6464;42.494;27.470;2023-04-08T11:50:42;102012.00;;;19.98;100.00
12801;BME280;6464;42.494;27.470;2023-04-08T11:53:29;102317.19;;;24.85;100.00
12801;BME280;6464;42.494;27.470;2023-04-08T11:58:43;102190.59;;;21.84;100.00
12801;BME280;6464;42.494;27.470;2023-04-08T12:04:26;102008.97;;;20.07;100.00
12801;BME280;6464;42.494;27.470;2023-04-08T12:07:22;102167.88;;;22.13;100.00
12801;BME280;6464;42.494;27.470;2023-04-08T12:10:15;102358.06;;;25.12;100.00
12801;BME280;6464;42.494;27.470;2023-04-08T12:12:42;102271.56;;;25.14;100.00
12801;BME280;6464;42.494;27.470;2023-04-08T12:15:31;102172.56;;;20.98;100.00
12801;BME280;6464;42.494;27.470;2023-04-08T12:18:32;102186.78;;;20.53;100.00
12801;BME280;6464;42.494;27.470;2023-04-08T12:21:14;101994.06;;;20.47;100.00
12801;BME280;6464;42.494;27.470;2023-04-08T12:23:47;102230.69;;;22.10;100.00
12801;BME280;6464;42.494;27.470;2023-04-08T12:26:21;102230.91;;;22.04;100.00
12801;BME280;6464;42.494;27.470;2023-04-08T12:28:59;101939.34;;;17.65;100.00
12801;BME280;6464;42.494;27.470;2023-04-08T12:31:29;102045.28;;;18.26;100.00
12801;BME280;6464;42.494;27.470;2023-04-08T12:34:00;101705.75;;;15.24;100.00
12801;BME280;6464;42.494;27.470;2023-04-08T12:36:31;101774.75;;;15.70;100.00
12801;BME280;6464;42.494;27.470;2023-04-08T12:42:42;101630.81;;;15.45;100.00
12801;BME280;6464;42.494;27.470;2023-04-08T12:45:15;101705.06;;;15.54;100.00
12801;BME280;6464;42.494;27.470;2023-04-08T12:47:47;101762.59;;;15.16;100.00
12801;BME280;6464;42.494;27.470;2023-04-08T12:50:20;101681.88;;;15.59;100.00
12801;BME280;6464;42.494;27.470;2023-04-08T12:53:05;101531.03;;;13.69;100.00
12801;BME280;6464;42.494;27.470;2023-04-08T12:56:03;101323.31;;;13.28;100.00
12801;BME280;6464;42.494;27.470;2023-04-08T12:58:54;101391.44;;;14.08;100.00
12801;BME280;6464;42.494;27.470;2023-04-08T13:01:39;101244.53;;;13.38;100.00
12801;BME280;6464;42.494;27.470;2023-04-08T13:12:46;100875.13;;;13.79;100.00
12801;BME280;6464;42.494;27.470;2023-04-08T13:15:28;101122.91;;;14.65;100.00
12801;BME280;6464;42.494;27.470;2023-04-08T13:28:28;101297.13;;;15.63;100.00
12801;BME280;6464;42.494;27.470;2023-04-08T15:18:10;100594.34;;;11.21;100.00
12801;BME280;6464;42.494;27.470;2023-04-08T15:20:49;100376.13;;;10.13;100.00
12801;BME280;6464;42.494;27.470;2023-04-08T15:23:18;100417.88;;;10.33;100.00
12801;BME280;6464;42.494;27.470;2023-04-08T15:25:53;100541.75;;;11.14;100.00
12801;BME280;6464;42.494;27.470;2023-04-08T15:28:22;100468.19;;;10.63;100.00
12801;BME280;6464;42.494;27.470;2023-04-08T15:30:50;100542.47;;;10.41;100.00
12801;BME280;6464;42.494;27.470;2023-04-08T15:33:29;100602.94;;;10.92;100.00
12801;BME280;6464;42.494;27.470;2023-04-08T16:58:41;100477.22;;;9.13;100.00
12801;BME280;6464;42.494;27.470;2023-04-08T17:19:21;100639.41;;;9.74;100.00
12801;BME280;6464;42.494;27.470;2023-04-08T17:21:49;100466.63;;;8.62;100.00
12801;BME280;6464;42.494;27.470;2023-04-08T17:24:19;100508.19;;;8.94;100.00
12801;BME280;6464;42.494;27.470;2023-04-08T17:26:52;100483.88;;;8.80;100.00
12801;BME280;6464;42.494;27.470;2023-04-08T17:29:21;100553.13;;;9.39;100.00
12801;BME280;6464;42.494;27.470;2023-04-08T17:31:51;100510.06;;;8.88;100.00
12801;BME280;6464;42.494;27.470;2023-04-08T17:34:22;100559.31;;;9.35;100.00
12801;BME280;6464;42.494;27.470;2023-04-08T17:36:55;100572.56;;;9.29;100.00
12801;BME280;6464;42.494;27.470;2023-04-08T17:39:24;100465.81;;;8.56;100.00
12801;BME280;6464;42.494;27.470;2023-04-08T17:41:53;100493.06;;;8.52;100.00
12801;BME280;6464;42.494;27.470;2023-04-08T17:44:22;100474.84;;;8.35;100.00
12801;BME280;6464;42.494;27.470;2023-04-08T17:46:54;100626.59;;;9.53;100.00
12801;BME280;6464;42.494;27.470;2023-04-08T17:49:29;100646.78;;;9.51;100.00
12801;BME280;6464;42.494;27.470;2023-04-08T17:52:00;100631.84;;;9.55;100.00
12801;BME280;6464;42.494;27.470;2023-04-08T17:54:28;100426.97;;;8.13;100.00
12801;BME280;6464;42.494;27.470;2023-04-08T17:56:59;100611.25;;;9.24;100.00
12801;BME280;6464;42.494;27.470;2023-04-08T17:59:28;100465.28;;;8.29;100.00
12801;BME280;6464;42.494;27.470;2023-04-08T18:01:56;100580.53;;;9.24;100.00
12801;BME280;6464;42.494;27.470;2023-04-08T18:04:25;100504.53;;;8.44;100.00
12801;BME280;6464;42.494;27.470;2023-04-08T18:06:54;100627.78;;;9.32;100.00
12801;BME280;6464;42.494;27.470;2023-04-08T18:09:22;100599.31;;;8.98;100.00
12801;BME280;6464;42.494;27.470;2023-04-08T18:11:51;100624.78;;;8.96;100.00
12801;BME280;6464;42.494;27.470;2023-04-08T18:14:19;100504.53;;;8.44;100.00
12801;BME280;6464;42.494;27.470;2023-04-08T18:16:49;100569.44;;;9.02;100.00
12801;BME280;6464;42.494;27.470;2023-04-08T18:19:17;100435.88;;;8.03;100.00
12801;BME280;6464;42.494;27.470;2023-04-08T18:21:46;100629.69;;;9.21;100.00
12801;BME280;6464;42.494;27.470;2023-04-08T18:24:13;100509.91;;;8.34;100.00
12801;BME280;6464;42.494;27.470;2023-04-08T18:26:41;100574.84;;;8.93;100.00
12801;BME280;6464;42.494;27.470;2023-04-08T18:29:10;100467.25;;;8.12;100.00
12801;BME280;6464;42.494;27.470;2023-04-08T18:31:40;100436.00;;;7.90;100.00
12801;BME280;6464;42.494;27.470;2023-04-08T18:34:09;100481.00;;;8.34;100.00
12801;BME280;6464;42.494;27.470;2023-04-08T18:36:37;100555.94;;;8.65;100.00
12801;BME280;6464;42.494;27.470;2023-04-08T18:39:07;100692.91;;;9.16;100.00
12801;BME280;6464;42.494;27.470;2023-04-08T18:41:36;100642.09;;;9.13;100.00
12801;BME280;6464;42.494;27.470;2023-04-08T18:44:06;100649.13;;;9.12;100.00
12801;BME280;6464;42.494;27.470;2023-04-08T18:46:33;100505.66;;;8.22;100.00
12801;BME280;6464;42.494;27.470;2023-04-08T18:49:02;100600.00;;;9.14;100.00
12801;BME280;6464;42.494;27.470;2023-04-08T18:51:30;100606.59;;;8.81;100.00
12801;BME280;6464;42.494;27.470;2023-04-08T18:54:01;100418.63;;;7.80;100.00
12801;BME280;6464;42.494;27.470;2023-04-08T18:56:32;100488.22;;;8.18;100.00
12801;BME280;6464;42.494;27.470;2023-04-08T18:59:03;100621.13;;;9.07;100.00
12801;BME280;6464;42.494;27.470;2023-04-08T19:01:32;100525.59;;;8.41;100.00
12801;BME280;6464;42.494;27.470;2023-04-08T19:04:17;100414.44;;;7.64;100.00
12801;BME280;6464;42.494;27.470;2023-04-08T19:06:47;100388.88;;;7.78;100.00
12801;BME280;6464;42.494;27.470;2023-04-08T19:09:18;100575.91;;;8.80;100.00
12801;BME280;6464;42.494;27.470;2023-04-08T19:11:47;100601.06;;;8.98;100.00
12801;BME280;6464;42.494;27.470;2023-04-08T19:14:17;100486.34;;;8.28;100.00
12801;BME280;6464;42.494;27.470;2023-04-08T19:16:52;100497.09;;;8.08;100.00
12801;BME280;6464;42.494;27.470;2023-04-08T19:19:20;100510.31;;;7.98;100.00
12801;BME280;6464;42.494;27.470;2023-04-08T19:21:54;100493.69;;;7.96;100.00
12801;BME280;6464;42.494;27.470;2023-04-08T19:24:23;100477.13;;;7.93;100.00
12801;BME280;6464;42.494;27.470;2023-04-08T19:26:55;100559.66;;;8.49;100.00
12801;BME280;6464;42.494;27.470;2023-04-08T19:29:26;100611.84;;;8.81;100.00
12801;BME280;6464;42.494;27.470;2023-04-08T19:31:56;100604.84;;;8.79;100.00
12801;BME280;6464;42.494;27.470;2023-04-08T19:34:24;100567.66;;;8.40;100.00
12801;BME280;6464;42.494;27.470;2023-04-08T19:36:53;100409.38;;;7.47;100.00
12801;BME280;6464;42.494;27.470;2023-04-08T19:39:22;100420.53;;;7.69;100.00
12801;BME280;6464;42.494;27.470;2023-04-08T19:41:52;100376.31;;;7.32;100.00
12801;BME280;6464;42.494;27.470;2023-04-08T19:44:35;100607.53;;;8.75;100.00
12801;BME280;6464;42.494;27.470;2023-04-08T19:47:03;100398.97;;;7.38;100.00
12801;BME280;6464;42.494;27.470;2023-04-08T19:49:32;100458.59;;;8.05;100.00
12801;BME280;6464;42.494;27.470;2023-04-08T19:52:05;100464.66;;;8.10;100.00
12801;BME280;6464;42.494;27.470;2023-04-08T19:54:34;100549.00;;;8.60;100.00
12801;BME280;6464;42.494;27.470;2023-04-08T19:57:07;100464.53;;;8.19;100.00
12801;BME280;6464;42.494;27.470;2023-04-08T19:59:43;100340.31;;;7.43;100.00
12801;BME280;6464;42.494;27.470;2023-04-08T20:02:13;100448.00;;;8.13;100.00
12801;BME280;6464;42.494;27.470;2023-04-08T20:04:49;100399.16;;;7.96;100.00
12801;BME280;6464;42.494;27.470;2023-04-08T20:07:17;100418.59;;;7.82;100.00
12801;BME280;6464;42.494;27.470;2023-04-08T20:09:45;100546.94;;;8.83;100.00
12801;BME280;6464;42.494;27.470;2023-04-08T20:12:15;100411.69;;;7.75;100.00
12801;BME280;6464;42.494;27.470;2023-04-08T20:14:45;100498.75;;;8.15;100.00
12801;BME280;6464;42.494;27.470;2023-04-08T20:17:17;100517.56;;;8.50;100.00
12801;BME280;6464;42.494;27.470;2023-04-08T20:19:45;100420.25;;;7.90;100.00
12801;BME280;6464;42.494;27.470;2023-04-08T20:22:13;100437.59;;;8.04;100.00
12801;BME280;6464;42.494;27.470;2023-04-08T20:24:45;100525.97;;;8.80;100.00
12801;BME280;6464;42.494;27.470;2023-04-08T20:27:13;100513.88;;;8.65;100.00
12801;BME280;6464;42.494;27.470;2023-04-08T20:29:46;100486.25;;;8.34;100.00
12801;BME280;6464;42.494;27.470;2023-04-08T20:32:15;100446.06;;;8.27;100.00
12801;BME280;6464;42.494;27.470;2023-04-08T20:34:46;100413.25;;;7.91;100.00
12801;BME280;6464;42.494;27.470;2023-04-08T20:37:18;100515.59;;;8.68;100.00
12801;BME280;6464;42.494;27.470;2023-04-08T20:39:46;100577.97;;;9.20;100.00
12801;BME280;6464;42.494;27.470;2023-04-08T20:42:25;100434.63;;;8.30;100.00
12801;BME280;6464;42.494;27.470;2023-04-08T20:44:59;100452.06;;;8.38;100.00
12801;BME280;6464;42.494;27.470;2023-04-08T20:47:30;100485.97;;;8.57;100.00
12801;BME280;6464;42.494;27.470;2023-04-08T20:49:59;100584.25;;;9.11;100.00
12801;BME280;6464;42.494;27.470;2023-04-08T20:52:27;100503.06;;;8.19;100.00
12801;BME280;6464;42.494;27.470;2023-04-08T20:54:59;100422.09;;;7.84;100.00
12801;BME280;6464;42.494;27.470;2023-04-08T20:57:32;100475.09;;;8.15;100.00
12801;BME280;6464;42.494;27.470;2023-04-08T21:00:02;100434.19;;;7.95;100.00
12801;BME280;6464;42.494;27.470;2023-04-08T21:02:30;100566.00;;;9.00;100.00
12801;BME280;6464;42.494;27.470;2023-04-08T21:05:29;100473.03;;;8.43;100.00
12801;BME280;6464;42.494;27.470;2023-04-08T21:07:59;100395.59;;;8.04;100.00
12801;BME280;6464;42.494;27.470;2023-04-08T21:10:27;100397.50;;;7.91;100.00
12801;BME280;6464;42.494;27.470;2023-04-08T21:12:54;100508.38;;;8.82;100.00
12801;BME280;6464;42.494;27.470;2023-04-08T21:15:23;100584.13;;;9.17;100.00
12801;BME280;6464;42.494;27.470;2023-04-08T21:17:51;100468.66;;;8.42;100.00
12801;BME280;6464;42.494;27.470;2023-04-08T21:20:26;100512.13;;;8.66;100.00
12801;BME280;6464;42.494;27.470;2023-04-08T21:23:03;100572.84;;;9.11;100.00
12801;BME280;6464;42.494;27.470;2023-04-08T21:25:40;100625.50;;;9.09;100.00
12801;BME280;6464;42.494;27.470;2023-04-08T21:28:11;100537.34;;;8.79;100.00
12801;BME280;6464;42.494;27.470;2023-04-08T21:30:44;100577.97;;;9.18;100.00
12801;BME280;6464;42.494;27.470;2023-04-08T21:33:14;100559.28;;;8.78;100.00